sensor_id;sensor_type;location;lat;lon;timestamp;temperature;humidity
48836;DHT22;62581;47.342;7.908;2023-04-09T00:01:24;7.70;99.90
48836;DHT22;62581;47.342;7.908;2023-04-09T00:03:51;7.60;99.90
48836;DHT22;62581;47.342;7.908;2023-04-09T00:06:18;7.60;99.90
48836;DHT22;62581;47.342;7.908;2023-04-09T00:08:46;7.50;99.90
48836;DHT22;62581;47.342;7.908;2023-04-09T00:11:13;7.40;99.90
48836;DHT22;62581;47.342;7.908;2023-04-09T00:13:40;7.40;99.90
48836;DHT22;62581;47.342;7.908;2023-04-09T00:16:07;7.30;99.90
48836;DHT22;62581;47.342;7.908;2023-04-09T00:18:34;7.30;99.90
48836;DHT22;62581;47.342;7.908;2023-04-09T00:21:01;7.30;99.90
48836;DHT22;62581;47.342;7.908;2023-04-09T00:23:28;7.30;99.90
48836;DHT22;62581;47.342;7.908;2023-04-09T00:25:56;7.30;99.90
48836;DHT22;62581;47.342;7.908;2023-04-09T00:28:24;7.40;99.90
48836;DHT22;62581;47.342;7.908;2023-04-09T00:30:51;7.40;99.90
48836;DHT22;62581;47.342;7.908;2023-04-09T00:33:17;7.50;99.90
48836;DHT22;62581;47.342;7.908;2023-04-09T00:35:44;7.50;99.90
48836;DHT22;62581;47.342;7.908;2023-04-09T00:38:11;7.50;99.90
48836;DHT22;62581;47.342;7.908;2023-04-09T00:40:38;7.60;99.90
48836;DHT22;62581;47.342;7.908;2023-04-09T00:43:06;7.70;99.90
48836;DHT22;62581;47.342;7.908;2023-04-09T00:45:34;7.70;99.90
48836;DHT22;62581;47.342;7.908;2023-04-09T00:48:01;7.70;99.90
48836;DHT22;62581;47.342;7.908;2023-04-09T00:50:28;7.80;99.90
48836;DHT22;62581;47.342;7.908;2023-04-09T00:52:55;7.80;99.90
48836;DHT22;62581;47.342;7.908;2023-04-09T00:55:22;7.90;99.90
48836;DHT22;62581;47.342;7.908;2023-04-09T00:57:50;7.90;99.90
48836;DHT22;62581;47.342;7.908;2023-04-09T01:00:18;7.90;99.90
48836;DHT22;62581;47.342;7.908;2023-04-09T01:02:46;8.00;99.90
48836;DHT22;62581;47.342;7.908;2023-04-09T01:05:13;8.00;99.90
48836;DHT22;62581;47.342;7.908;2023-04-09T01:07:53;7.90;99.90
48836;DHT22;62581;47.342;7.908;2023-04-09T01:10:30;7.90;99.90
48836;DHT22;62581;47.342;7.908;2023-04-09T01:13:06;7.90;99.90
48836;DHT22;62581;47.342;7.908;2023-04-09T01:15:38;7.90;99.90
48836;DHT22;62581;47.342;7.908;2023-04-09T01:18:08;7.90;99.90
48836;DHT22;62581;47.342;7.908;2023-04-09T01:20:39;7.80;99.90
48836;DHT22;62581;47.342;7.908;2023-04-09T01:23:15;7.80;99.90
48836;DHT22;62581;47.342;7.908;2023-04-09T01:25:51;7.70;99.90
48836;DHT22;62581;47.342;7.908;2023-04-09T01:28:22;7.60;99.90
48836;DHT22;62581;47.342;7.908;2023-04-09T01:30:55;7.60;99.90
48836;DHT22;62581;47.342;7.908;2023-04-09T01:33:23;7.50;99.90
48836;DHT22;62581;47.342;7.908;2023-04-09T01:35:52;7.40;99.90
48836;DHT22;62581;47.342;7.908;2023-04-09T01:38:20;7.30;99.90
48836;DHT22;62581;47.342;7.908;2023-04-09T01:40:48;7.20;99.90
48836;DHT22;62581;47.342;7.908;2023-04-09T01:43:16;7.20;99.90
48836;DHT22;62581;47.342;7.908;2023-04-09T01:45:45;7.10;99.90
48836;DHT22;62581;47.342;7.908;2023-04-09T01:48:13;7.00;99.90
48836;DHT22;62581;47.342;7.908;2023-04-09T01:50:40;6.90;99.90
48836;DHT22;62581;47.342;7.908;2023-04-09T01:53:08;6.90;99.90
48836;DHT22;62581;47.342;7.908;2023-04-09T01:55:35;6.80;99.90
48836;DHT22;62581;47.342;7.908;2023-04-09T01:58:01;6.80;99.90
48836;DHT22;62581;47.342;7.908;2023-04-09T02:00:33;6.70;99.90
48836;DHT22;62581;47.342;7.908;2023-04-09T02:03:07;6.70;99.90
48836;DHT22;62581;47.342;7.908;2023-04-09T02:05:36;6.70;99.90
48836;DHT22;62581;47.342;7.908;2023-04-09T02:08:06;6.60;99.90
48836;DHT22;62581;47.342;7.908;2023-04-09T02:10:35;6.60;99.90
48836;DHT22;62581;47.342;7.908;2023-04-09T02:13:04;6.50;99.90
48836;DHT22;62581;47.342;7.908;2023-04-09T02:15:33;6.50;99.90
48836;DHT22;62581;47.342;7.908;2023-04-09T02:18:03;6.50;99.90
48836;DHT22;62581;47.342;7.908;2023-04-09T02:20:30;6.50;99.90
48836;DHT22;62581;47.342;7.908;2023-04-09T02:22:57;6.40;99.90
48836;DHT22;62581;47.342;7.908;2023-04-09T02:25:24;6.30;99.90
48836;DHT22;62581;47.342;7.908;2023-04-09T02:27:52;6.30;99.90
48836;DHT22;62581;47.342;7.908;2023-04-09T02:30:19;6.20;99.90
48836;DHT22;62581;47.342;7.908;2023-04-09T02:32:46;6.20;99.90
48836;DHT22;62581;47.342;7.908;2023-04-09T02:35:14;6.10;99.90
48836;DHT22;62581;47.342;7.908;2023-04-09T02:37:41;6.10;99.90
48836;DHT22;62581;47.342;7.908;2023-04-09T02:40:09;6.10;99.90
48836;DHT22;62581;47.342;7.908;2023-04-09T02:42:36;6.10;99.90
48836;DHT22;62581;47.342;7.908;2023-04-09T02:45:03;6.10;99.90
48836;DHT22;62581;47.342;7.908;2023-04-09T02:47:30;6.00;99.90
48836;DHT22;62581;47.342;7.908;2023-04-09T02:49:57;6.00;99.90
48836;DHT22;62581;47.342;7.908;2023-04-09T02:52:25;5.90;99.90
48836;DHT22;62581;47.342;7.908;2023-04-09T02:54:52;5.90;99.90
48836;DHT22;62581;47.342;7.908;2023-04-09T02:57:19;5.90;99.90
48836;DHT22;62581;47.342;7.908;2023-04-09T02:59:46;6.00;99.90
48836;DHT22;62581;47.342;7.908;2023-04-09T03:02:13;5.90;99.90
48836;DHT22;62581;47.342;7.908;2023-04-09T03:04:40;5.90;99.90
48836;DHT22;62581;47.342;7.908;2023-04-09T03:07:07;5.90;99.90
48836;DHT22;62581;47.342;7.908;2023-04-09T03:09:35;5.90;99.90
48836;DHT22;62581;47.342;7.908;2023-04-09T03:12:02;5.80;99.90
48836;DHT22;62581;47.342;7.908;2023-04-09T03:14:29;5.90;99.90
48836;DHT22;62581;47.342;7.908;2023-04-09T03:16:56;5.80;99.90
48836;DHT22;62581;47.342;7.908;2023-04-09T03:19:23;5.70;99.90
48836;DHT22;62581;47.342;7.908;2023-04-09T03:21:50;5.70;99.90
48836;DHT22;62581;47.342;7.908;2023-04-09T03:24:17;5.70;99.90
48836;DHT22;62581;47.342;7.908;2023-04-09T03:26:45;5.70;99.90
48836;DHT22;62581;47.342;7.908;2023-04-09T03:29:12;5.70;99.90
48836;DHT22;62581;47.342;7.908;2023-04-09T03:31:39;5.80;99.90
48836;DHT22;62581;47.342;7.908;2023-04-09T03:34:06;5.80;99.90
48836;DHT22;62581;47.342;7.908;2023-04-09T03:36:33;5.70;99.90
48836;DHT22;62581;47.342;7.908;2023-04-09T03:39:00;5.70;99.90
48836;DHT22;62581;47.342;7.908;2023-04-09T03:41:27;5.70;99.90
48836;DHT22;62581;47.342;7.908;2023-04-09T03:43:55;5.70;99.90
48836;DHT22;62581;47.342;7.908;2023-04-09T03:46:22;5.70;99.90
48836;DHT22;62581;47.342;7.908;2023-04-09T03:48:50;5.70;99.90
48836;DHT22;62581;47.342;7.908;2023-04-09T03:51:17;5.70;99.90
48836;DHT22;62581;47.342;7.908;2023-04-09T03:53:44;5.80;99.90
48836;DHT22;62581;47.342;7.908;2023-04-09T03:56:11;5.70;99.90
48836;DHT22;62581;47.342;7.908;2023-04-09T03:58:38;5.80;99.90
48836;DHT22;62581;47.342;7.908;2023-04-09T04:01:06;5.80;99.90
48836;DHT22;62581;47.342;7.908;2023-04-09T04:03:33;5.80;99.90
48836;DHT22;62581;47.342;7.908;2023-04-09T04:06:00;5.80;99.90
48836;DHT22;62581;47.342;7.908;2023-04-09T04:08:28;5.80;99.90
48836;DHT22;62581;47.342;7.908;2023-04-09T04:10:55;5.80;99.90
48836;DHT22;62581;47.342;7.908;2023-04-09T04:13:22;5.80;99.90
48836;DHT22;62581;47.342;7.908;2023-04-09T04:15:49;5.70;99.90
48836;DHT22;62581;47.342;7.908;2023-04-09T04:18:17;5.80;99.90
48836;DHT22;62581;47.342;7.908;2023-04-09T04:20:44;5.80;99.90
48836;DHT22;62581;47.342;7.908;2023-04-09T04:23:11;5.80;99.90
48836;DHT22;62581;47.342;7.908;2023-04-09T04:25:40;5.80;99.90
48836;DHT22;62581;47.342;7.908;2023-04-09T04:28:07;5.80;99.90
48836;DHT22;62581;47.342;7.908;2023-04-09T04:30:34;5.80;99.90
48836;DHT22;62581;47.342;7.908;2023-04-09T04:33:01;5.80;99.90
48836;DHT22;62581;47.342;7.908;2023-04-09T04:35:29;5.70;99.90
48836;DHT22;62581;47.342;7.908;2023-04-09T04:37:56;5.60;99.90
48836;DHT22;62581;47.342;7.908;2023-04-09T04:40:23;5.60;99.90
48836;DHT22;62581;47.342;7.908;2023-04-09T04:42:50;5.60;99.90
48836;DHT22;62581;47.342;7.908;2023-04-09T04:45:17;5.50;99.90
48836;DHT22;62581;47.342;7.908;2023-04-09T04:47:44;5.40;99.90
48836;DHT22;62581;47.342;7.908;2023-04-09T04:50:11;5.40;99.90
48836;DHT22;62581;47.342;7.908;2023-04-09T04:52:39;5.30;99.90
48836;DHT22;62581;47.342;7.908;2023-04-09T04:55:06;5.30;99.90
48836;DHT22;62581;47.342;7.908;2023-04-09T04:57:33;5.30;99.90
48836;DHT22;62581;47.342;7.908;2023-04-09T05:00:00;5.30;99.90
48836;DHT22;62581;47.342;7.908;2023-04-09T05:02:27;5.20;99.90
48836;DHT22;62581;47.342;7.908;2023-04-09T05:04:54;5.20;99.90
48836;DHT22;62581;47.342;7.908;2023-04-09T05:07:21;5.20;99.90
48836;DHT22;62581;47.342;7.908;2023-04-09T05:09:50;5.20;99.90
48836;DHT22;62581;47.342;7.908;2023-04-09T05:12:16;5.20;99.90
48836;DHT22;62581;47.342;7.908;2023-04-09T05:14:43;5.10;99.90
48836;DHT22;62581;47.342;7.908;2023-04-09T05:17:10;5.10;99.90
48836;DHT22;62581;47.342;7.908;2023-04-09T05:19:37;5.20;99.90
48836;DHT22;62581;47.342;7.908;2023-04-09T05:22:04;5.20;99.90
48836;DHT22;62581;47.342;7.908;2023-04-09T05:24:31;5.20;99.90
48836;DHT22;62581;47.342;7.908;2023-04-09T05:26:59;5.20;99.90
48836;DHT22;62581;47.342;7.908;2023-04-09T05:29:27;5.10;99.90
48836;DHT22;62581;47.342;7.908;2023-04-09T05:31:54;5.20;99.90
48836;DHT22;62581;47.342;7.908;2023-04-09T05:34:21;5.20;99.90
48836;DHT22;62581;47.342;7.908;2023-04-09T05:36:47;5.30;99.90
48836;DHT22;62581;47.342;7.908;2023-04-09T05:39:14;5.30;99.90
48836;DHT22;62581;47.342;7.908;2023-04-09T05:41:41;5.50;99.90
48836;DHT22;62581;47.342;7.908;2023-04-09T05:44:11;5.60;99.90
48836;DHT22;62581;47.342;7.908;2023-04-09T05:46:38;5.80;99.90
48836;DHT22;62581;47.342;7.908;2023-04-09T05:49:05;5.90;99.90
48836;DHT22;62581;47.342;7.908;2023-04-09T05:51:32;6.10;99.90
48836;DHT22;62581;47.342;7.908;2023-04-09T05:54:00;6.20;99.90
48836;DHT22;62581;47.342;7.908;2023-04-09T05:56:27;6.30;99.90
48836;DHT22;62581;47.342;7.908;2023-04-09T05:58:54;6.40;99.90
48836;DHT22;62581;47.342;7.908;2023-04-09T06:01:22;6.50;99.90
48836;DHT22;62581;47.342;7.908;2023-04-09T06:03:49;6.60;99.90
48836;DHT22;62581;47.342;7.908;2023-04-09T06:06:16;6.70;99.90
48836;DHT22;62581;47.342;7.908;2023-04-09T06:08:43;6.80;99.90
48836;DHT22;62581;47.342;7.908;2023-04-09T06:11:10;6.90;99.90
48836;DHT22;62581;47.342;7.908;2023-04-09T06:13:37;7.00;99.90
48836;DHT22;62581;47.342;7.908;2023-04-09T06:16:05;7.00;99.90
48836;DHT22;62581;47.342;7.908;2023-04-09T06:18:34;7.10;99.90
48836;DHT22;62581;47.342;7.908;2023-04-09T06:21:02;7.10;99.90
48836;DHT22;62581;47.342;7.908;2023-04-09T06:23:29;7.20;99.90
48836;DHT22;62581;47.342;7.908;2023-04-09T06:25:56;7.30;99.90
48836;DHT22;62581;47.342;7.908;2023-04-09T06:28:23;7.30;99.90
48836;DHT22;62581;47.342;7.908;2023-04-09T06:30:50;7.40;99.90
48836;DHT22;62581;47.342;7.908;2023-04-09T06:33:17;7.50;99.90
48836;DHT22;62581;47.342;7.908;2023-04-09T06:35:46;7.60;99.90
48836;DHT22;62581;47.342;7.908;2023-04-09T06:38:14;7.60;99.90
48836;DHT22;62581;47.342;7.908;2023-04-09T06:40:41;7.70;99.90
48836;DHT22;62581;47.342;7.908;2023-04-09T06:43:08;7.80;99.90
48836;DHT22;62581;47.342;7.908;2023-04-09T06:45:35;7.90;99.90
48836;DHT22;62581;47.342;7.908;2023-04-09T06:48:03;7.90;99.90
48836;DHT22;62581;47.342;7.908;2023-04-09T06:50:31;8.00;99.90
48836;DHT22;62581;47.342;7.908;2023-04-09T06:52:59;8.00;99.90
48836;DHT22;62581;47.342;7.908;2023-04-09T06:55:26;8.10;99.90
48836;DHT22;62581;47.342;7.908;2023-04-09T06:57:53;8.10;99.90
48836;DHT22;62581;47.342;7.908;2023-04-09T07:00:20;8.30;99.90
48836;DHT22;62581;47.342;7.908;2023-04-09T07:02:48;8.30;99.90
48836;DHT22;62581;47.342;7.908;2023-04-09T07:05:15;8.40;99.90
48836;DHT22;62581;47.342;7.908;2023-04-09T07:07:44;8.50;99.90
48836;DHT22;62581;47.342;7.908;2023-04-09T07:10:12;8.50;99.90
48836;DHT22;62581;47.342;7.908;2023-04-09T07:12:39;8.60;99.90
48836;DHT22;62581;47.342;7.908;2023-04-09T07:15:07;8.70;99.90
48836;DHT22;62581;47.342;7.908;2023-04-09T07:17:34;8.80;99.90
48836;DHT22;62581;47.342;7.908;2023-04-09T07:20:01;8.80;99.90
48836;DHT22;62581;47.342;7.908;2023-04-09T07:22:29;8.90;99.90
48836;DHT22;62581;47.342;7.908;2023-04-09T07:24:56;9.00;99.90
48836;DHT22;62581;47.342;7.908;2023-04-09T07:27:25;9.10;99.90
48836;DHT22;62581;47.342;7.908;2023-04-09T07:29:54;9.10;99.90
48836;DHT22;62581;47.342;7.908;2023-04-09T07:32:21;9.20;99.90
48836;DHT22;62581;47.342;7.908;2023-04-09T07:34:50;9.20;99.90
48836;DHT22;62581;47.342;7.908;2023-04-09T07:37:17;9.20;99.90
48836;DHT22;62581;47.342;7.908;2023-04-09T07:39:44;9.30;99.90
48836;DHT22;62581;47.342;7.908;2023-04-09T07:42:11;9.40;99.90
48836;DHT22;62581;47.342;7.908;2023-04-09T07:44:39;9.40;99.90
48836;DHT22;62581;47.342;7.908;2023-04-09T07:47:07;9.60;99.90
48836;DHT22;62581;47.342;7.908;2023-04-09T07:49:35;9.70;99.90
48836;DHT22;62581;47.342;7.908;2023-04-09T07:52:02;9.70;99.90
48836;DHT22;62581;47.342;7.908;2023-04-09T07:54:29;9.80;99.90
48836;DHT22;62581;47.342;7.908;2023-04-09T07:56:56;9.80;99.90
48836;DHT22;62581;47.342;7.908;2023-04-09T07:59:23;9.90;99.90
48836;DHT22;62581;47.342;7.908;2023-04-09T08:01:52;9.90;99.90
48836;DHT22;62581;47.342;7.908;2023-04-09T08:04:19;9.80;99.90
48836;DHT22;62581;47.342;7.908;2023-04-09T08:06:46;9.80;99.90
48836;DHT22;62581;47.342;7.908;2023-04-09T08:09:15;9.70;99.90
48836;DHT22;62581;47.342;7.908;2023-04-09T08:11:43;9.60;99.90
48836;DHT22;62581;47.342;7.908;2023-04-09T08:14:12;9.70;99.90
48836;DHT22;62581;47.342;7.908;2023-04-09T08:16:39;9.70;99.90
48836;DHT22;62581;47.342;7.908;2023-04-09T08:19:08;9.70;99.90
48836;DHT22;62581;47.342;7.908;2023-04-09T08:21:36;9.80;99.90
48836;DHT22;62581;47.342;7.908;2023-04-09T08:24:04;9.90;99.90
48836;DHT22;62581;47.342;7.908;2023-04-09T08:26:32;9.90;99.90
48836;DHT22;62581;47.342;7.908;2023-04-09T08:28:59;9.90;99.90
48836;DHT22;62581;47.342;7.908;2023-04-09T08:31:26;9.80;99.90
48836;DHT22;62581;47.342;7.908;2023-04-09T08:33:53;9.80;99.90
48836;DHT22;62581;47.342;7.908;2023-04-09T08:36:21;9.80;99.90
48836;DHT22;62581;47.342;7.908;2023-04-09T08:38:48;9.80;99.90
48836;DHT22;62581;47.342;7.908;2023-04-09T08:41:17;9.90;99.90
48836;DHT22;62581;47.342;7.908;2023-04-09T08:43:45;10.00;99.90
48836;DHT22;62581;47.342;7.908;2023-04-09T08:46:13;10.10;99.90
48836;DHT22;62581;47.342;7.908;2023-04-09T08:48:42;10.30;99.90
48836;DHT22;62581;47.342;7.908;2023-04-09T08:51:12;10.30;99.90
48836;DHT22;62581;47.342;7.908;2023-04-09T08:53:42;10.40;99.90
48836;DHT22;62581;47.342;7.908;2023-04-09T08:56:10;10.50;99.90
48836;DHT22;62581;47.342;7.908;2023-04-09T08:58:41;10.70;99.90
48836;DHT22;62581;47.342;7.908;2023-04-09T09:01:18;10.80;99.90
48836;DHT22;62581;47.342;7.908;2023-04-09T09:03:52;10.90;99.90
48836;DHT22;62581;47.342;7.908;2023-04-09T09:06:21;10.90;99.90
48836;DHT22;62581;47.342;7.908;2023-04-09T09:09:03;11.00;99.90
48836;DHT22;62581;47.342;7.908;2023-04-09T09:11:30;11.10;99.90
48836;DHT22;62581;47.342;7.908;2023-04-09T09:13:59;11.20;99.90
48836;DHT22;62581;47.342;7.908;2023-04-09T09:16:26;11.30;99.90
48836;DHT22;62581;47.342;7.908;2023-04-09T09:18:53;11.30;99.90
48836;DHT22;62581;47.342;7.908;2023-04-09T09:21:21;11.60;99.90
48836;DHT22;62581;47.342;7.908;2023-04-09T09:23:48;11.80;99.90
48836;DHT22;62581;47.342;7.908;2023-04-09T09:26:19;11.70;99.90
48836;DHT22;62581;47.342;7.908;2023-04-09T09:28:48;11.70;99.90
48836;DHT22;62581;47.342;7.908;2023-04-09T09:31:16;11.60;99.90
48836;DHT22;62581;47.342;7.908;2023-04-09T09:33:43;11.50;99.90
48836;DHT22;62581;47.342;7.908;2023-04-09T09:36:11;11.60;99.90
48836;DHT22;62581;47.342;7.908;2023-04-09T09:38:52;11.50;99.90
48836;DHT22;62581;47.342;7.908;2023-04-09T09:41:21;11.50;99.90
48836;DHT22;62581;47.342;7.908;2023-04-09T09:43:49;11.60;99.90
48836;DHT22;62581;47.342;7.908;2023-04-09T09:46:16;11.70;99.90
48836;DHT22;62581;47.342;7.908;2023-04-09T09:48:43;11.80;99.90
48836;DHT22;62581;47.342;7.908;2023-04-09T09:51:13;11.80;99.90
48836;DHT22;62581;47.342;7.908;2023-04-09T09:53:42;11.70;99.90
48836;DHT22;62581;47.342;7.908;2023-04-09T09:56:14;11.90;99.90
48836;DHT22;62581;47.342;7.908;2023-04-09T09:58:46;12.00;99.90
48836;DHT22;62581;47.342;7.908;2023-04-09T10:01:16;12.20;99.90
48836;DHT22;62581;47.342;7.908;2023-04-09T10:03:46;12.40;99.90
48836;DHT22;62581;47.342;7.908;2023-04-09T10:06:15;12.50;99.90
48836;DHT22;62581;47.342;7.908;2023-04-09T10:08:43;12.50;99.90
48836;DHT22;62581;47.342;7.908;2023-04-09T10:11:10;12.60;99.90
48836;DHT22;62581;47.342;7.908;2023-04-09T10:13:40;12.60;99.90
48836;DHT22;62581;47.342;7.908;2023-04-09T10:16:08;12.60;99.90
48836;DHT22;62581;47.342;7.908;2023-04-09T10:18:35;12.60;99.90
48836;DHT22;62581;47.342;7.908;2023-04-09T10:21:08;12.60;99.90
48836;DHT22;62581;47.342;7.908;2023-04-09T10:23:39;12.70;99.90
48836;DHT22;62581;47.342;7.908;2023-04-09T10:26:08;12.90;99.90
48836;DHT22;62581;47.342;7.908;2023-04-09T10:28:36;12.90;99.90
48836;DHT22;62581;47.342;7.908;2023-04-09T10:31:04;13.10;99.90
48836;DHT22;62581;47.342;7.908;2023-04-09T10:33:35;13.00;99.90
48836;DHT22;62581;47.342;7.908;2023-04-09T10:36:03;13.10;99.90
48836;DHT22;62581;47.342;7.908;2023-04-09T10:38:35;13.20;99.90
48836;DHT22;62581;47.342;7.908;2023-04-09T10:41:13;13.30;99.90
48836;DHT22;62581;47.342;7.908;2023-04-09T10:43:41;13.40;99.90
48836;DHT22;62581;47.342;7.908;2023-04-09T10:46:24;13.60;99.90
48836;DHT22;62581;47.342;7.908;2023-04-09T10:49:08;13.80;99.90
48836;DHT22;62581;47.342;7.908;2023-04-09T10:51:36;13.80;99.90
48836;DHT22;62581;47.342;7.908;2023-04-09T10:54:04;13.80;99.90
48836;DHT22;62581;47.342;7.908;2023-04-09T10:56:32;13.70;99.90
48836;DHT22;62581;47.342;7.908;2023-04-09T10:58:59;13.70;99.90
48836;DHT22;62581;47.342;7.908;2023-04-09T11:01:26;13.70;99.90
48836;DHT22;62581;47.342;7.908;2023-04-09T11:04:10;13.60;99.90
48836;DHT22;62581;47.342;7.908;2023-04-09T11:06:41;13.70;99.90
48836;DHT22;62581;47.342;7.908;2023-04-09T11:09:10;13.90;99.90
48836;DHT22;62581;47.342;7.908;2023-04-09T11:11:37;14.10;99.90
48836;DHT22;62581;47.342;7.908;2023-04-09T11:14:04;14.00;99.90
48836;DHT22;62581;47.342;7.908;2023-04-09T11:16:31;14.00;99.90
48836;DHT22;62581;47.342;7.908;2023-04-09T11:18:58;14.20;99.90
48836;DHT22;62581;47.342;7.908;2023-04-09T11:21:27;14.40;99.90
48836;DHT22;62581;47.342;7.908;2023-04-09T11:23:54;14.50;99.90
48836;DHT22;62581;47.342;7.908;2023-04-09T11:26:33;14.80;99.90
48836;DHT22;62581;47.342;7.908;2023-04-09T11:29:04;14.90;99.90
48836;DHT22;62581;47.342;7.908;2023-04-09T11:31:31;14.90;99.90
48836;DHT22;62581;47.342;7.908;2023-04-09T11:33:58;15.10;99.90
48836;DHT22;62581;47.342;7.908;2023-04-09T11:36:27;15.10;99.90
48836;DHT22;62581;47.342;7.908;2023-04-09T11:38:54;15.10;99.90
48836;DHT22;62581;47.342;7.908;2023-04-09T11:41:32;15.20;99.90
48836;DHT22;62581;47.342;7.908;2023-04-09T11:44:01;15.20;99.90
48836;DHT22;62581;47.342;7.908;2023-04-09T11:46:29;15.30;99.90
48836;DHT22;62581;47.342;7.908;2023-04-09T11:48:56;15.30;99.90
48836;DHT22;62581;47.342;7.908;2023-04-09T11:51:23;15.40;99.90
48836;DHT22;62581;47.342;7.908;2023-04-09T11:53:53;15.40;99.90
48836;DHT22;62581;47.342;7.908;2023-04-09T11:56:20;15.30;99.90
48836;DHT22;62581;47.342;7.908;2023-04-09T11:58:47;15.50;99.90
48836;DHT22;62581;47.342;7.908;2023-04-09T12:01:15;15.60;99.90
48836;DHT22;62581;47.342;7.908;2023-04-09T12:03:42;15.80;99.90
48836;DHT22;62581;47.342;7.908;2023-04-09T12:06:09;15.70;99.90
48836;DHT22;62581;47.342;7.908;2023-04-09T12:08:36;15.80;99.90
48836;DHT22;62581;47.342;7.908;2023-04-09T12:11:11;15.70;99.90
48836;DHT22;62581;47.342;7.908;2023-04-09T12:13:38;16.00;99.90
48836;DHT22;62581;47.342;7.908;2023-04-09T12:16:07;16.50;99.90
48836;DHT22;62581;47.342;7.908;2023-04-09T12:18:35;17.60;99.90
48836;DHT22;62581;47.342;7.908;2023-04-09T12:21:02;19.00;98.80
48836;DHT22;62581;47.342;7.908;2023-04-09T12:23:29;20.60;95.30
48836;DHT22;62581;47.342;7.908;2023-04-09T12:25:57;22.10;92.20
48836;DHT22;62581;47.342;7.908;2023-04-09T12:28:27;23.20;86.50
48836;DHT22;62581;47.342;7.908;2023-04-09T12:30:54;24.20;81.20
48836;DHT22;62581;47.342;7.908;2023-04-09T12:33:22;24.60;78.00
48836;DHT22;62581;47.342;7.908;2023-04-09T12:35:49;25.10;73.10
48836;DHT22;62581;47.342;7.908;2023-04-09T12:38:16;25.70;70.40
48836;DHT22;62581;47.342;7.908;2023-04-09T12:40:44;26.30;67.50
48836;DHT22;62581;47.342;7.908;2023-04-09T12:43:11;25.80;67.30
48836;DHT22;62581;47.342;7.908;2023-04-09T12:45:39;25.70;67.50
48836;DHT22;62581;47.342;7.908;2023-04-09T12:48:06;26.40;65.20
48836;DHT22;62581;47.342;7.908;2023-04-09T12:50:32;27.10;63.40
48836;DHT22;62581;47.342;7.908;2023-04-09T12:52:59;27.20;61.40
48836;DHT22;62581;47.342;7.908;2023-04-09T12:55:26;27.60;60.30
48836;DHT22;62581;47.342;7.908;2023-04-09T12:57:53;27.80;57.90
48836;DHT22;62581;47.342;7.908;2023-04-09T13:00:20;27.60;58.40
48836;DHT22;62581;47.342;7.908;2023-04-09T13:02:49;28.10;58.70
48836;DHT22;62581;47.342;7.908;2023-04-09T13:05:17;28.60;58.70
48836;DHT22;62581;47.342;7.908;2023-04-09T13:07:44;28.90;56.60
48836;DHT22;62581;47.342;7.908;2023-04-09T13:10:11;28.90;56.20
48836;DHT22;62581;47.342;7.908;2023-04-09T13:12:38;27.80;54.90
48836;DHT22;62581;47.342;7.908;2023-04-09T13:15:06;27.90;56.30
48836;DHT22;62581;47.342;7.908;2023-04-09T13:17:33;28.60;55.50
48836;DHT22;62581;47.342;7.908;2023-04-09T13:20:01;28.40;55.50
48836;DHT22;62581;47.342;7.908;2023-04-09T13:22:28;28.60;55.10
48836;DHT22;62581;47.342;7.908;2023-04-09T13:24:55;29.20;54.60
48836;DHT22;62581;47.342;7.908;2023-04-09T13:27:22;29.80;54.00
48836;DHT22;62581;47.342;7.908;2023-04-09T13:29:49;29.60;54.20
48836;DHT22;62581;47.342;7.908;2023-04-09T13:32:16;29.50;53.80
48836;DHT22;62581;47.342;7.908;2023-04-09T13:34:45;29.90;52.90
48836;DHT22;62581;47.342;7.908;2023-04-09T13:37:13;29.90;53.00
48836;DHT22;62581;47.342;7.908;2023-04-09T13:39:40;30.50;52.50
48836;DHT22;62581;47.342;7.908;2023-04-09T13:42:07;31.10;51.50
48836;DHT22;62581;47.342;7.908;2023-04-09T13:44:34;30.40;51.50
48836;DHT22;62581;47.342;7.908;2023-04-09T13:47:01;30.50;52.20
48836;DHT22;62581;47.342;7.908;2023-04-09T13:49:28;31.20;51.10
48836;DHT22;62581;47.342;7.908;2023-04-09T13:51:55;31.80;50.60
48836;DHT22;62581;47.342;7.908;2023-04-09T13:54:24;31.90;49.70
48836;DHT22;62581;47.342;7.908;2023-04-09T13:56:51;31.80;49.10
48836;DHT22;62581;47.342;7.908;2023-04-09T13:59:18;32.00;49.30
48836;DHT22;62581;47.342;7.908;2023-04-09T14:01:45;32.10;49.30
48836;DHT22;62581;47.342;7.908;2023-04-09T14:04:12;31.90;49.10
48836;DHT22;62581;47.342;7.908;2023-04-09T14:06:39;32.30;49.30
48836;DHT22;62581;47.342;7.908;2023-04-09T14:09:07;32.60;48.40
48836;DHT22;62581;47.342;7.908;2023-04-09T14:11:35;32.60;47.90
48836;DHT22;62581;47.342;7.908;2023-04-09T14:14:02;32.30;47.50
48836;DHT22;62581;47.342;7.908;2023-04-09T14:16:29;32.80;46.60
48836;DHT22;62581;47.342;7.908;2023-04-09T14:18:56;33.00;46.50
48836;DHT22;62581;47.342;7.908;2023-04-09T14:21:23;33.30;46.50
48836;DHT22;62581;47.342;7.908;2023-04-09T14:23:51;33.70;45.40
48836;DHT22;62581;47.342;7.908;2023-04-09T14:26:18;34.30;44.70
48836;DHT22;62581;47.342;7.908;2023-04-09T14:28:46;34.30;44.40
48836;DHT22;62581;47.342;7.908;2023-04-09T14:31:13;34.10;44.50
48836;DHT22;62581;47.342;7.908;2023-04-09T14:33:44;34.50;44.80
48836;DHT22;62581;47.342;7.908;2023-04-09T14:36:11;34.50;45.20
48836;DHT22;62581;47.342;7.908;2023-04-09T14:38:38;35.10;44.40
48836;DHT22;62581;47.342;7.908;2023-04-09T14:41:05;35.20;43.70
48836;DHT22;62581;47.342;7.908;2023-04-09T14:43:32;35.50;42.60
48836;DHT22;62581;47.342;7.908;2023-04-09T14:46:00;35.50;42.60
48836;DHT22;62581;47.342;7.908;2023-04-09T14:48:28;36.00;42.60
48836;DHT22;62581;47.342;7.908;2023-04-09T14:50:55;36.00;42.70
48836;DHT22;62581;47.342;7.908;2023-04-09T14:53:22;35.90;42.70
48836;DHT22;62581;47.342;7.908;2023-04-09T14:55:49;34.90;42.50
48836;DHT22;62581;47.342;7.908;2023-04-09T14:58:16;33.90;43.40
48836;DHT22;62581;47.342;7.908;2023-04-09T15:00:43;34.30;43.40
48836;DHT22;62581;47.342;7.908;2023-04-09T15:03:12;35.20;43.20
48836;DHT22;62581;47.342;7.908;2023-04-09T15:05:38;35.40;42.70
48836;DHT22;62581;47.342;7.908;2023-04-09T15:08:06;34.80;42.80
48836;DHT22;62581;47.342;7.908;2023-04-09T15:10:35;34.40;43.20
48836;DHT22;62581;47.342;7.908;2023-04-09T15:13:01;34.50;42.90
48836;DHT22;62581;47.342;7.908;2023-04-09T15:15:28;34.80;43.20
48836;DHT22;62581;47.342;7.908;2023-04-09T15:17:55;35.30;43.40
48836;DHT22;62581;47.342;7.908;2023-04-09T15:20:26;35.50;41.50
48836;DHT22;62581;47.342;7.908;2023-04-09T15:22:53;35.50;42.00
48836;DHT22;62581;47.342;7.908;2023-04-09T15:25:20;35.80;41.50
48836;DHT22;62581;47.342;7.908;2023-04-09T15:27:48;35.50;41.40
48836;DHT22;62581;47.342;7.908;2023-04-09T15:30:15;35.60;41.90
48836;DHT22;62581;47.342;7.908;2023-04-09T15:32:42;35.80;41.70
48836;DHT22;62581;47.342;7.908;2023-04-09T15:35:09;36.00;41.20
48836;DHT22;62581;47.342;7.908;2023-04-09T15:37:39;35.80;41.50
48836;DHT22;62581;47.342;7.908;2023-04-09T15:40:07;35.40;41.10
48836;DHT22;62581;47.342;7.908;2023-04-09T15:42:34;35.80;41.40
48836;DHT22;62581;47.342;7.908;2023-04-09T15:45:01;35.40;41.30